Time;durP1;ratioP1;P1;durP2;ratioP2;P2;SDS_P1;SDS_P2;PMS_P1;PMS_P2;Temp;Humidity;BMP_temperature;BMP_pressure;BME280_temperature;BME280_humidity;BME280_pressure;Samples;Min_cycle;Max_cycle;Signal;HPM_P1;HPM_P2
2023/06/26 00:00:39;;;;;;;8.48;4.80;;;;;;;;;;2032752;29;20025;-91
2023/06/26 00:01:40;;;;;;;7.05;4.60;;;;;;;;;;2032783;29;20031;-90
2023/06/26 00:02:41;;;;;;;8.45;4.70;;;;;;;;;;2040575;29;20030;-90
2023/06/26 00:03:42;;;;;;;6.93;4.50;;;;;;;;;;2040360;29;20059;-90
2023/06/26 00:04:43;;;;;;;8.85;5.10;;;;;;;;;;2040604;29;20107;-90
2023/06/26 00:05:44;;;;;;;9.98;4.43;;;;;;;;;;2040567;29;20399;-90
2023/06/26 00:06:44;;;;;;;5.15;4.25;;;;;;;;;;2040566;29;20030;-91
2023/06/26 00:07:45;;;;;;;6.85;4.38;;;;;;;;;;2041175;29;20420;-91
2023/06/26 00:08:45;;;;;;;8.40;4.50;;;;;;;;;;2043072;29;20050;-91
2023/06/26 00:09:46;;;;;;;7.80;5.07;;;;;;;;;;2040496;29;20049;-90
2023/06/26 00:10:46;;;;;;;7.78;4.20;;;;;;;;;;2032607;29;20040;-90
2023/06/26 00:11:46;;;;;;;6.32;4.32;;;;;;;;;;2032874;29;20028;-90
2023/06/26 00:12:47;;;;;;;6.80;4.80;;;;;;;;;;2040518;29;20529;-91
2023/06/26 00:13:47;;;;;;;8.73;4.55;;;;;;;;;;2041120;29;20032;-90
2023/06/26 00:14:48;;;;;;;7.30;4.53;;;;;;;;;;2041729;29;20483;-89
2023/06/26 00:15:48;;;;;;;8.10;4.43;;;;;;;;;;2034298;29;20046;-89
2023/06/26 00:16:49;;;;;;;6.45;4.50;;;;;;;;;;2042170;29;20027;-91
2023/06/26 00:17:50;;;;;;;6.57;3.97;;;;;;;;;;2041274;29;20441;-90
2023/06/26 00:18:51;;;;;;;6.82;4.15;;;;;;;;;;2040737;29;20043;-90
2023/06/26 00:19:51;;;;;;;7.50;4.32;;;;;;;;;;2040799;29;20035;-90
2023/06/26 00:20:52;;;;;;;9.73;4.18;;;;;;;;;;2040622;29;20479;-91
2023/06/26 00:21:52;;;;;;;6.30;3.67;;;;;;;;;;2040711;29;20099;-90
2023/06/26 00:22:53;;;;;;;6.75;4.18;;;;;;;;;;2040428;29;20539;-90
2023/06/26 00:23:54;;;;;;;9.52;4.53;;;;;;;;;;2048465;29;20031;-90
2023/06/26 00:24:54;;;;;;;7.50;4.57;;;;;;;;;;2040566;29;20106;-91
2023/06/26 00:25:54;;;;;;;8.00;5.00;;;;;;;;;;2032610;29;20031;-91
2023/06/26 00:26:55;;;;;;;6.57;3.83;;;;;;;;;;2040391;29;20400;-91
2023/06/26 00:27:55;;;;;;;6.40;4.05;;;;;;;;;;2048370;29;20427;-91
2023/06/26 00:28:56;;;;;;;8.88;4.53;;;;;;;;;;2040416;29;20019;-90
2023/06/26 00:29:56;;;;;;;6.93;3.97;;;;;;;;;;2040551;29;20044;-91
2023/06/26 00:30:56;;;;;;;7.93;4.20;;;;;;;;;;2040667;29;20030;-91
2023/06/26 00:31:57;;;;;;;6.03;4.10;;;;;;;;;;2032455;29;20400;-91
2023/06/26 00:32:57;;;;;;;6.47;4.00;;;;;;;;;;2032534;29;20366;-91
2023/06/26 00:33:58;;;;;;;9.10;4.45;;;;;;;;;;2040508;29;20083;-91
2023/06/26 00:34:58;;;;;;;8.13;4.13;;;;;;;;;;2040363;29;20456;-91
2023/06/26 00:35:59;;;;;;;8.10;4.00;;;;;;;;;;2040432;29;20408;-91
2023/06/26 00:37:00;;;;;;;8.00;3.80;;;;;;;;;;2041091;29;20028;-91
2023/06/26 00:38:01;;;;;;;8.23;4.47;;;;;;;;;;2042853;29;20035;-90
2023/06/26 00:39:03;;;;;;;9.23;4.90;;;;;;;;;;2032411;29;20441;-90
2023/06/26 00:40:05;;;;;;;9.68;4.50;;;;;;;;;;2032435;29;20020;-90
2023/06/26 00:41:12;;;;;;;9.82;4.65;;;;;;;;;;2040187;29;20245;-90
2023/06/26 00:42:12;;;;;;;9.90;4.50;;;;;;;;;;2043208;29;20020;-90
2023/06/26 00:43:12;;;;;;;7.93;4.93;;;;;;;;;;2045061;29;20047;-90
2023/06/26 00:44:13;;;;;;;7.05;4.10;;;;;;;;;;2049378;29;20107;-91
2023/06/26 00:45:13;;;;;;;10.25;4.70;;;;;;;;;;2043361;29;20008;-92
2023/06/26 00:46:14;;;;;;;7.03;4.25;;;;;;;;;;2050873;29;20022;-92
2023/06/26 00:47:17;;;;;;;8.40;4.45;;;;;;;;;;2050787;29;20082;-91
2023/06/26 00:48:18;;;;;;;8.02;4.22;;;;;;;;;;2048275;29;20028;-92
2023/06/26 00:49:19;;;;;;;8.35;4.40;;;;;;;;;;2041044;29;20059;-91
2023/06/26 00:50:19;;;;;;;6.68;4.30;;;;;;;;;;2041193;29;20423;-90
2023/06/26 00:51:20;;;;;;;7.25;4.88;;;;;;;;;;2040921;29;20106;-91
2023/06/26 00:52:21;;;;;;;10.35;5.28;;;;;;;;;;2040619;29;20475;-91
2023/06/26 00:53:22;;;;;;;8.73;4.75;;;;;;;;;;2041281;29;20016;-92
2023/06/26 00:54:22;;;;;;;9.40;5.38;;;;;;;;;;2041509;29;20028;-92
2023/06/26 00:55:23;;;;;;;8.95;4.60;;;;;;;;;;2041190;29;20064;-91
2023/06/26 00:56:24;;;;;;;8.48;4.95;;;;;;;;;;2041532;29;20032;-92
2023/06/26 00:57:24;;;;;;;7.22;4.63;;;;;;;;;;2043189;29;20034;-91
2023/06/26 00:58:25;;;;;;;12.40;5.38;;;;;;;;;;2044233;29;20500;-91
2023/06/26 00:59:25;;;;;;;10.77;4.47;;;;;;;;;;2044731;29;20027;-91
2023/06/26 01:00:27;;;;;;;8.38;4.68;;;;;;;;;;2046505;29;20023;-91
2023/06/26 01:01:28;;;;;;;11.47;5.17;;;;;;;;;;1686537;29;10461581;-91
2023/06/26 01:02:33;;;;;;;8.55;4.93;;;;;;;;;;2043430;29;20283;-92
2023/06/26 01:03:33;;;;;;;8.07;5.15;;;;;;;;;;2051406;29;20026;-91
2023/06/26 01:04:34;;;;;;;12.65;6.40;;;;;;;;;;2050433;29;20015;-91
2023/06/26 01:05:35;;;;;;;10.02;5.53;;;;;;;;;;2049325;29;20047;-91
2023/06/26 01:06:35;;;;;;;10.35;5.38;;;;;;;;;;2048713;29;20059;-91
2023/06/26 01:07:37;;;;;;;8.93;5.43;;;;;;;;;;2044629;29;20083;-92
2023/06/26 01:08:39;;;;;;;11.57;5.68;;;;;;;;;;2049323;29;20031;-92
2023/06/26 01:09:40;;;;;;;9.77;5.78;;;;;;;;;;2041877;29;20072;-92
2023/06/26 01:10:41;;;;;;;9.30;5.35;;;;;;;;;;2041732;29;20380;-91
2023/06/26 01:11:41;;;;;;;9.43;5.07;;;;;;;;;;2040225;29;20034;-91
2023/06/26 01:12:42;;;;;;;7.43;5.10;;;;;;;;;;2040228;29;20032;-90
2023/06/26 01:13:45;;;;;;;8.93;5.28;;;;;;;;;;2040142;29;20024;-90
2023/06/26 01:14:46;;;;;;;10.50;4.95;;;;;;;;;;2032688;29;20039;-92
2023/06/26 01:15:47;;;;;;;6.68;4.25;;;;;;;;;;2040059;29;20040;-89
2023/06/26 01:16:49;;;;;;;8.95;5.00;;;;;;;;;;2040086;29;20023;-90
2023/06/26 01:17:51;;;;;;;7.40;4.38;;;;;;;;;;2040006;29;20043;-90
2023/06/26 01:18:52;;;;;;;7.28;4.07;;;;;;;;;;2040855;29;20118;-91
2023/06/26 01:19:53;;;;;;;8.45;4.47;;;;;;;;;;2040059;29;20028;-91
2023/06/26 01:20:53;;;;;;;7.38;4.07;;;;;;;;;;2039999;29;20058;-91
2023/06/26 01:22:14;;;;;;;8.85;4.15;;;;;;;;;;2039950;29;20031;-90
2023/06/26 01:23:23;;;;;;;6.30;4.20;;;;;;;;;;2040081;29;20122;-90
2023/06/26 01:24:27;;;;;;;8.27;4.22;;;;;;;;;;2040107;29;20049;-90
2023/06/26 01:25:38;;;;;;;9.05;4.25;;;;;;;;;;2041095;29;20067;-90
2023/06/26 01:26:40;;;;;;;9.60;3.92;;;;;;;;;;2041774;29;20099;-89
2023/06/26 01:27:42;;;;;;;8.48;3.63;;;;;;;;;;2040443;29;20035;-90
2023/06/26 01:28:44;;;;;;;7.40;3.85;;;;;;;;;;2040242;29;20035;-90
2023/06/26 01:29:46;;;;;;;7.45;3.80;;;;;;;;;;2039831;29;20023;-90
2023/06/26 01:30:47;;;;;;;7.40;3.70;;;;;;;;;;1699551;29;10003676;-90
2023/06/26 01:31:49;;;;;;;5.18;3.63;;;;;;;;;;2039646;29;20028;-90
2023/06/26 01:32:50;;;;;;;5.60;3.53;;;;;;;;;;2032002;29;20509;-90
2023/06/26 01:33:51;;;;;;;5.70;3.10;;;;;;;;;;2040034;29;20028;-89
2023/06/26 01:34:52;;;;;;;4.88;3.15;;;;;;;;;;2039925;29;20028;-90
2023/06/26 01:35:52;;;;;;;6.05;3.58;;;;;;;;;;2036404;29;20052;-89
2023/06/26 01:36:53;;;;;;;6.30;3.42;;;;;;;;;;2042479;29;20129;-90
2023/06/26 01:37:53;;;;;;;6.13;3.55;;;;;;;;;;2047890;29;20015;-90
2023/06/26 01:38:54;;;;;;;5.35;3.13;;;;;;;;;;2040624;29;20034;-90
2023/06/26 01:39:54;;;;;;;5.22;3.45;;;;;;;;;;2039783;29;20440;-89
2023/06/26 01:40:55;;;;;;;7.65;3.17;;;;;;;;;;2039732;29;20468;-89
2023/06/26 01:41:55;;;;;;;4.55;3.30;;;;;;;;;;2039865;29;20028;-90
2023/06/26 01:42:57;;;;;;;6.28;3.50;;;;;;;;;;2040086;29;20074;-90
2023/06/26 01:44:24;;;;;;;6.65;3.13;;;;;;;;;;2040485;29;20047;-89
2023/06/26 01:45:29;;;;;;;5.80;3.10;;;;;;;;;;2036911;29;20039;-89
2023/06/26 01:46:35;;;;;;;4.43;2.90;;;;;;;;;;2042351;29;20575;-90
2023/06/26 01:47:38;;;;;;;5.07;3.40;;;;;;;;;;2040562;29;20693;-91
2023/06/26 01:49:17;;;;;;;5.30;3.08;;;;;;;;;;2047562;29;20039;-90
2023/06/26 01:50:25;;;;;;;5.82;2.80;;;;;;;;;;2017145;29;20040;-90
2023/06/26 01:51:32;;;;;;;6.13;3.03;;;;;;;;;;2008477;29;20486;-91
2023/06/26 01:52:42;;;;;;;5.45;2.80;;;;;;;;;;2018308;29;20030;-90
2023/06/26 01:53:51;;;;;;;5.30;2.92;;;;;;;;;;2040459;29;20099;-90
2023/06/26 01:55:07;;;;;;;7.18;3.30;;;;;;;;;;2039981;29;20115;-89
2023/06/26 01:56:16;;;;;;;6.47;3.10;;;;;;;;;;2040409;29;20025;-90
2023/06/26 01:57:18;;;;;;;4.97;3.17;;;;;;;;;;2040538;29;20530;-90
2023/06/26 01:58:22;;;;;;;5.85;3.22;;;;;;;;;;2047628;29;20240;-89
2023/06/26 01:59:25;;;;;;;4.82;3.60;;;;;;;;;;2039797;29;20051;-90
2023/06/26 02:00:26;;;;;;;4.78;2.83;;;;;;;;;;2040145;29;20530;-89
2023/06/26 02:01:27;;;;;;;5.60;3.45;;;;;;;;;;2040624;29;20019;-90
2023/06/26 02:02:30;;;;;;;5.38;3.30;;;;;;;;;;2040057;29;20028;-90
2023/06/26 02:03:30;;;;;;;5.57;3.20;;;;;;;;;;2039756;29;20488;-89
2023/06/26 02:04:31;;;;;;;6.35;3.05;;;;;;;;;;2039800;29;20129;-90
2023/06/26 02:05:31;;;;;;;7.55;3.03;;;;;;;;;;2039940;29;20042;-90
2023/06/26 02:06:32;;;;;;;7.20;3.00;;;;;;;;;;2032016;29;20501;-90
2023/06/26 02:07:32;;;;;;;5.90;2.95;;;;;;;;;;2040023;29;20417;-90
2023/06/26 02:08:32;;;;;;;5.07;2.80;;;;;;;;;;2039726;29;20042;-90
2023/06/26 02:09:33;;;;;;;5.25;3.30;;;;;;;;;;2039598;29;20134;-90
2023/06/26 02:10:34;;;;;;;5.35;3.10;;;;;;;;;;2039643;29;20087;-90
2023/06/26 02:11:35;;;;;;;4.55;2.97;;;;;;;;;;2039859;29;20028;-90
2023/06/26 02:12:37;;;;;;;5.10;3.40;;;;;;;;;;2039629;29;20412;-91
2023/06/26 02:13:37;;;;;;;6.63;3.53;;;;;;;;;;1680386;29;10367411;-89
2023/06/26 02:14:38;;;;;;;6.10;2.95;;;;;;;;;;2031853;29;20418;-90
2023/06/26 02:15:39;;;;;;;5.60;3.58;;;;;;;;;;2031884;29;20111;-90
2023/06/26 02:16:39;;;;;;;5.00;2.70;;;;;;;;;;2031886;29;20088;-90
2023/06/26 02:17:40;;;;;;;5.90;3.65;;;;;;;;;;2032040;29;20506;-90
2023/06/26 02:18:41;;;;;;;9.00;3.90;;;;;;;;;;2039740;29;20099;-90
2023/06/26 02:19:47;;;;;;;5.63;3.30;;;;;;;;;;2047729;29;20031;-90
2023/06/26 02:20:47;;;;;;;5.07;4.00;;;;;;;;;;2039779;29;20039;-90
2023/06/26 02:21:49;;;;;;;5.15;3.22;;;;;;;;;;2031735;29;20194;-90
2023/06/26 02:22:49;;;;;;;4.03;3.10;;;;;;;;;;2039510;29;20031;-90
2023/06/26 02:23:50;;;;;;;5.97;3.03;;;;;;;;;;2039681;29;20575;-90
2023/06/26 02:24:50;;;;;;;6.60;3.42;;;;;;;;;;2039912;29;20030;-90
2023/06/26 02:25:51;;;;;;;7.85;3.20;;;;;;;;;;2039448;29;20032;-90
2023/06/26 02:26:51;;;;;;;5.55;2.92;;;;;;;;;;2039658;29;20106;-89
2023/06/26 02:27:52;;;;;;;4.97;2.90;;;;;;;;;;2039412;29;20625;-89
2023/06/26 02:28:52;;;;;;;6.72;3.58;;;;;;;;;;2039556;29;20587;-90
2023/06/26 02:29:53;;;;;;;6.90;3.35;;;;;;;;;;2039680;29;20024;-89
2023/06/26 02:30:53;;;;;;;6.78;3.17;;;;;;;;;;2031657;29;20107;-90
2023/06/26 02:31:54;;;;;;;7.65;3.00;;;;;;;;;;2039655;29;20122;-90
2023/06/26 02:32:54;;;;;;;6.22;3.33;;;;;;;;;;2040397;29;20201;-90
2023/06/26 02:33:55;;;;;;;5.45;3.03;;;;;;;;;;2039651;29;20480;-90
2023/06/26 02:34:55;;;;;;;5.30;2.72;;;;;;;;;;2039670;29;20027;-89
2023/06/26 02:35:56;;;;;;;6.85;3.10;;;;;;;;;;2039752;29;20468;-88
2023/06/26 02:36:56;;;;;;;;;;;;;;;;;;1687094;29;10384118;-88
2023/06/26 02:37:56;;;;;;;5.20;2.67;;;;;;;;;;2040231;29;19918;-89
2023/06/26 02:38:57;;;;;;;5.65;3.03;;;;;;;;;;2039260;29;20299;-90
2023/06/26 02:39:57;;;;;;;4.07;3.00;;;;;;;;;;2039423;29;20028;-88
2023/06/26 02:40:58;;;;;;;8.23;3.60;;;;;;;;;;2039550;29;20507;-90
2023/06/26 02:41:58;;;;;;;5.15;3.13;;;;;;;;;;2039460;29;20110;-90
2023/06/26 02:42:59;;;;;;;5.88;2.72;;;;;;;;;;2040193;29;20028;-89
2023/06/26 02:43:59;;;;;;;6.57;2.80;;;;;;;;;;2040142;29;20047;-90
2023/06/26 02:45:00;;;;;;;5.22;2.80;;;;;;;;;;2039995;29;20470;-90
2023/06/26 02:46:00;;;;;;;3.60;2.88;;;;;;;;;;2039813;29;20106;-90
2023/06/26 02:47:01;;;;;;;5.97;2.80;;;;;;;;;;2040016;29;20054;-90
2023/06/26 02:48:01;;;;;;;5.65;3.13;;;;;;;;;;2039174;29;20035;-90
2023/06/26 02:49:01;;;;;;;5.22;3.33;;;;;;;;;;2039442;29;20076;-91
2023/06/26 02:50:02;;;;;;;6.60;2.90;;;;;;;;;;2039225;29;20020;-90
2023/06/26 02:51:02;;;;;;;4.57;3.35;;;;;;;;;;2039258;29;20431;-90
2023/06/26 02:52:03;;;;;;;5.88;3.28;;;;;;;;;;2039478;29;20548;-91
2023/06/26 02:53:03;;;;;;;7.78;3.25;;;;;;;;;;2039552;29;20460;-90
2023/06/26 02:54:04;;;;;;;4.68;3.05;;;;;;;;;;2039326;29;20126;-90
2023/06/26 02:55:05;;;;;;;7.00;3.08;;;;;;;;;;2031698;29;20497;-90
2023/06/26 02:56:05;;;;;;;5.72;3.35;;;;;;;;;;2031084;29;20039;-89
2023/06/26 02:57:06;;;;;;;5.53;3.45;;;;;;;;;;2039077;29;20519;-90
2023/06/26 02:58:06;;;;;;;6.75;4.18;;;;;;;;;;2038457;29;20024;-89
2023/06/26 02:59:07;;;;;;;6.13;3.60;;;;;;;;;;2031110;29;20141;-91
2023/06/26 03:00:09;;;;;;;6.53;3.53;;;;;;;;;;2030973;29;20040;-90
2023/06/26 03:01:09;;;;;;;6.05;3.80;;;;;;;;;;2039155;29;20057;-90
2023/06/26 03:02:09;;;;;;;5.85;3.38;;;;;;;;;;2039129;29;20031;-90
2023/06/26 03:03:10;;;;;;;5.97;3.30;;;;;;;;;;2039038;29;20060;-91
2023/06/26 03:04:10;;;;;;;4.82;3.08;;;;;;;;;;2039873;29;20058;-89
2023/06/26 03:05:13;;;;;;;5.57;3.15;;;;;;;;;;2039901;29;20566;-90
2023/06/26 03:06:14;;;;;;;9.50;3.47;;;;;;;;;;2039654;29;20428;-91
2023/06/26 03:07:14;;;;;;;6.80;3.53;;;;;;;;;;2046481;29;20098;-90
2023/06/26 03:08:16;;;;;;;6.68;3.90;;;;;;;;;;2039464;29;20471;-90
2023/06/26 03:09:16;;;;;;;6.32;3.53;;;;;;;;;;2039399;29;20095;-90
2023/06/26 03:10:17;;;;;;;7.70;4.15;;;;;;;;;;2048874;29;20263;-90
2023/06/26 03:11:17;;;;;;;8.68;3.97;;;;;;;;;;2049619;29;20044;-90
2023/06/26 03:12:18;;;;;;;7.00;3.70;;;;;;;;;;2048807;29;20105;-90
2023/06/26 03:13:18;;;;;;;5.30;3.70;;;;;;;;;;2049656;29;20027;-90
2023/06/26 03:14:19;;;;;;;7.38;3.85;;;;;;;;;;2049737;29;20038;-90
2023/06/26 03:15:21;;;;;;;7.15;4.05;;;;;;;;;;2048923;29;20023;-91
2023/06/26 03:16:22;;;;;;;5.75;3.83;;;;;;;;;;2040241;29;20123;-90
2023/06/26 03:17:22;;;;;;;12.48;4.38;;;;;;;;;;2039675;29;20555;-90
2023/06/26 03:18:22;;;;;;;8.98;4.35;;;;;;;;;;2039591;29;20445;-91
2023/06/26 03:19:23;;;;;;;8.70;4.10;;;;;;;;;;2039685;29;20043;-91
2023/06/26 03:20:24;;;;;;;7.97;4.53;;;;;;;;;;2031230;29;20032;-91
2023/06/26 03:21:24;;;;;;;9.73;4.70;;;;;;;;;;2039862;29;20027;-89
2023/06/26 03:22:24;;;;;;;8.98;4.07;;;;;;;;;;2040218;29;20413;-91
2023/06/26 03:23:25;;;;;;;8.95;4.97;;;;;;;;;;2040972;29;20024;-90
2023/06/26 03:24:25;;;;;;;8.18;4.97;;;;;;;;;;2051689;29;20103;-88
2023/06/26 03:25:26;;;;;;;8.43;4.95;;;;;;;;;;2047964;29;20046;-90
2023/06/26 03:26:28;;;;;;;8.73;4.85;;;;;;;;;;2039994;29;20493;-90
2023/06/26 03:27:28;;;;;;;9.73;5.13;;;;;;;;;;2039690;29;20151;-90
2023/06/26 03:28:31;;;;;;;9.82;4.85;;;;;;;;;;2047436;29;20091;-89
2023/06/26 03:29:31;;;;;;;9.93;5.63;;;;;;;;;;2041259;29;20032;-89
2023/06/26 03:30:31;;;;;;;12.20;6.45;;;;;;;;;;2045281;29;20027;-90
2023/06/26 03:31:32;;;;;;;11.68;5.40;;;;;;;;;;2050069;29;20251;-90
2023/06/26 03:32:32;;;;;;;9.95;5.00;;;;;;;;;;2049526;29;20019;-90
2023/06/26 03:33:33;;;;;;;11.65;4.97;;;;;;;;;;2048175;29;20024;-90
2023/06/26 03:34:33;;;;;;;12.68;5.47;;;;;;;;;;2040222;29;20110;-89
2023/06/26 03:35:34;;;;;;;8.38;5.60;;;;;;;;;;2039678;29;20044;-88
2023/06/26 03:36:35;;;;;;;12.48;5.43;;;;;;;;;;2039173;29;20063;-91
2023/06/26 03:37:35;;;;;;;12.93;5.93;;;;;;;;;;2031328;29;20095;-90
2023/06/26 03:38:36;;;;;;;10.20;5.53;;;;;;;;;;2039219;29;20130;-91
2023/06/26 03:39:36;;;;;;;8.98;5.55;;;;;;;;;;2038833;29;20129;-89
2023/06/26 03:40:37;;;;;;;10.55;5.82;;;;;;;;;;2039210;29;20221;-90
2023/06/26 03:41:37;;;;;;;10.52;5.78;;;;;;;;;;2039803;29;20447;-90
2023/06/26 03:42:37;;;;;;;12.10;5.72;;;;;;;;;;2039869;29;20031;-90
2023/06/26 03:43:38;;;;;;;11.63;5.93;;;;;;;;;;2047037;29;20134;-91
2023/06/26 03:44:38;;;;;;;9.52;6.03;;;;;;;;;;2039372;29;20027;-90
2023/06/26 03:45:39;;;;;;;13.07;6.32;;;;;;;;;;2039584;29;20023;-91
2023/06/26 03:46:39;;;;;;;10.32;6.03;;;;;;;;;;2039816;29;20027;-90
2023/06/26 03:47:39;;;;;;;12.85;6.28;;;;;;;;;;2029186;29;20538;-90
2023/06/26 03:48:40;;;;;;;14.52;5.85;;;;;;;;;;2031309;29;20055;-91
2023/06/26 03:49:40;;;;;;;8.68;5.45;;;;;;;;;;2039067;29;20117;-90
2023/06/26 03:50:41;;;;;;;12.27;5.63;;;;;;;;;;2039766;29;20027;-89
2023/06/26 03:51:41;;;;;;;14.00;6.25;;;;;;;;;;2039107;29;20028;-90
2023/06/26 03:52:42;;;;;;;10.20;6.03;;;;;;;;;;2031170;29;20166;-90
2023/06/26 03:53:42;;;;;;;8.77;5.93;;;;;;;;;;2031208;29;20111;-89
2023/06/26 03:54:43;;;;;;;10.45;6.13;;;;;;;;;;2039108;29;20087;-90
2023/06/26 03:55:43;;;;;;;12.52;6.70;;;;;;;;;;2039589;29;20079;-90
2023/06/26 03:56:44;;;;;;;10.05;6.60;;;;;;;;;;2040723;29;20438;-90
2023/06/26 03:57:44;;;;;;;10.05;6.43;;;;;;;;;;2041401;29;20385;-89
2023/06/26 03:58:44;;;;;;;11.05;6.45;;;;;;;;;;2041826;29;20115;-88
2023/06/26 03:59:45;;;;;;;14.50;6.25;;;;;;;;;;2046102;29;20469;-88
2023/06/26 04:00:47;;;;;;;11.00;6.32;;;;;;;;;;2050049;29;20100;-88
2023/06/26 04:01:47;;;;;;;11.70;6.55;;;;;;;;;;2049660;29;20050;-88
2023/06/26 04:02:47;;;;;;;11.38;7.07;;;;;;;;;;2048831;29;20032;-89
2023/06/26 04:03:48;;;;;;;12.15;6.15;;;;;;;;;;2044410;29;20031;-88
2023/06/26 04:04:48;;;;;;;12.45;7.10;;;;;;;;;;2033050;29;20032;-88
2023/06/26 04:05:49;;;;;;;12.10;6.70;;;;;;;;;;2039076;29;20032;-88
2023/06/26 04:06:49;;;;;;;12.68;6.93;;;;;;;;;;2039009;29;20023;-89
2023/06/26 04:07:52;;;;;;;12.45;6.53;;;;;;;;;;2031233;29;20062;-88
2023/06/26 04:08:53;;;;;;;11.35;6.70;;;;;;;;;;2039307;29;20035;-88
2023/06/26 04:09:53;;;;;;;14.48;7.75;;;;;;;;;;2040997;29;20460;-88
2023/06/26 04:10:57;;;;;;;13.73;6.45;;;;;;;;;;2039745;29;20492;-88
2023/06/26 04:11:59;;;;;;;16.13;7.93;;;;;;;;;;1727825;29;10371908;-87
2023/06/26 04:12:59;;;;;;;11.40;7.47;;;;;;;;;;2031121;29;20347;-87
2023/06/26 04:14:00;;;;;;;13.18;7.18;;;;;;;;;;2031140;29;20044;-88
2023/06/26 04:15:00;;;;;;;13.82;6.78;;;;;;;;;;2030920;29;20039;-88
2023/06/26 04:16:02;;;;;;;12.07;7.10;;;;;;;;;;1722965;29;10480413;-88
2023/06/26 04:17:03;;;;;;;14.48;8.02;;;;;;;;;;2028883;29;20237;-87
2023/06/26 04:18:03;;;;;;;14.00;7.93;;;;;;;;;;2031505;29;20476;-87
2023/06/26 04:19:04;;;;;;;13.50;7.18;;;;;;;;;;2032402;29;20082;-88
2023/06/26 04:20:09;;;;;;;13.60;8.30;;;;;;;;;;2040345;29;20024;-87
2023/06/26 04:21:14;;;;;;;12.27;7.32;;;;;;;;;;2041089;29;20030;-89
2023/06/26 04:24:11;;;;;;;12.10;7.50;;;;;;;;;;2041250;29;20047;-87
2023/06/26 04:25:11;;;;;;;13.55;7.80;;;;;;;;;;2041140;29;20079;-87
2023/06/26 04:26:14;;;;;;;13.90;7.65;;;;;;;;;;2041081;29;20031;-87
2023/06/26 04:27:15;;;;;;;12.75;7.53;;;;;;;;;;2040285;29;20023;-88
2023/06/26 04:28:15;;;;;;;13.63;7.40;;;;;;;;;;2040320;29;20080;-88
2023/06/26 04:29:16;;;;;;;18.33;8.57;;;;;;;;;;2041062;29;20128;-88
2023/06/26 04:30:16;;;;;;;13.00;7.63;;;;;;;;;;2040911;29;20038;-88
2023/06/26 04:31:17;;;;;;;12.00;7.85;;;;;;;;;;2040768;29;20043;-88
2023/06/26 04:32:17;;;;;;;15.32;8.23;;;;;;;;;;2040317;29;20484;-88
2023/06/26 04:33:17;;;;;;;14.93;7.35;;;;;;;;;;2040358;29;20048;-88
2023/06/26 04:34:18;;;;;;;13.48;7.50;;;;;;;;;;2040594;29;20504;-88
2023/06/26 04:35:19;;;;;;;13.95;7.95;;;;;;;;;;2040471;29;20150;-88
2023/06/26 04:36:20;;;;;;;16.30;8.32;;;;;;;;;;2040133;29;20542;-88
2023/06/26 04:37:22;;;;;;;15.88;8.55;;;;;;;;;;2040209;29;20087;-88
2023/06/26 04:38:22;;;;;;;12.10;7.72;;;;;;;;;;2040785;29;20038;-88
2023/06/26 04:39:23;;;;;;;16.95;8.88;;;;;;;;;;2040073;29;20414;-88
2023/06/26 04:40:23;;;;;;;13.63;7.80;;;;;;;;;;2032263;29;20048;-89
2023/06/26 04:41:23;;;;;;;13.77;7.88;;;;;;;;;;2039986;29;20496;-89
2023/06/26 04:42:24;;;;;;;13.48;8.52;;;;;;;;;;2040545;29;20091;-89
2023/06/26 04:43:24;;;;;;;16.20;8.07;;;;;;;;;;2040112;29;20130;-89
2023/06/26 04:44:25;;;;;;;13.68;9.27;;;;;;;;;;2040274;29;20139;-88
2023/06/26 04:45:25;;;;;;;15.10;7.88;;;;;;;;;;2048083;29;20453;-88
2023/06/26 04:46:27;;;;;;;17.30;8.55;;;;;;;;;;2040021;29;20064;-88
2023/06/26 04:47:28;;;;;;;13.55;8.07;;;;;;;;;;2040121;29;20523;-90
2023/06/26 04:48:29;;;;;;;13.23;8.10;;;;;;;;;;2039976;29;20032;-90
2023/06/26 04:49:29;;;;;;;13.90;8.20;;;;;;;;;;2040419;29;20074;-89
2023/06/26 04:50:30;;;;;;;13.07;8.30;;;;;;;;;;2040852;29;20142;-89
2023/06/26 04:51:31;;;;;;;18.13;8.40;;;;;;;;;;2040032;29;20040;-90
2023/06/26 04:52:31;;;;;;;14.13;8.57;;;;;;;;;;2040233;29;20034;-89
2023/06/26 04:53:32;;;;;;;15.38;8.57;;;;;;;;;;2040875;29;20440;-89
2023/06/26 04:54:32;;;;;;;16.90;8.43;;;;;;;;;;2040741;29;20039;-90
2023/06/26 04:55:33;;;;;;;15.68;8.05;;;;;;;;;;2040052;29;20114;-91
2023/06/26 04:56:33;;;;;;;13.48;8.35;;;;;;;;;;2040253;29;20038;-89
2023/06/26 04:58:17;;;;;;;15.40;8.30;;;;;;;;;;2039988;29;20522;-89
2023/06/26 04:59:23;;;;;;;16.63;8.00;;;;;;;;;;2039977;29;20032;-88
2023/06/26 05:00:32;;;;;;;16.30;8.77;;;;;;;;;;2034082;29;20027;-90
2023/06/26 05:01:32;;;;;;;14.30;9.27;;;;;;;;;;2042982;29;20063;-90
2023/06/26 05:02:33;;;;;;;14.25;8.15;;;;;;;;;;2039856;29;20143;-91
2023/06/26 05:03:34;;;;;;;13.77;7.95;;;;;;;;;;2039998;29;20102;-92
2023/06/26 05:04:34;;;;;;;12.77;8.50;;;;;;;;;;2040763;29;20500;-90
2023/06/26 05:05:35;;;;;;;14.63;8.18;;;;;;;;;;2040599;29;20437;-90
2023/06/26 05:06:35;;;;;;;15.25;9.05;;;;;;;;;;2040061;29;20531;-90
2023/06/26 05:07:36;;;;;;;17.77;8.60;;;;;;;;;;2040147;29;20031;-90
2023/06/26 05:08:36;;;;;;;14.75;8.25;;;;;;;;;;2040117;29;20574;-90
2023/06/26 05:10:38;;;;;;;16.15;8.07;;;;;;;;;;2032337;29;20493;-91
2023/06/26 05:11:39;;;;;;;;;;;;;;;;;;2040544;29;20055;-90
2023/06/26 05:13:27;;;;;;;14.32;8.23;;;;;;;;;;2032138;29;19918;-90
2023/06/26 05:14:28;;;;;;;17.05;7.95;;;;;;;;;;2034793;29;20051;-91
2023/06/26 05:21:27;;;;;;;14.10;8.52;;;;;;;;;;2031979;29;20020;-90
2023/06/26 05:22:27;;;;;;;12.13;7.32;;;;;;;;;;2030607;29;20102;-91
2023/06/26 05:23:31;;;;;;;16.17;7.88;;;;;;;;;;2042501;29;20051;-89
2023/06/26 05:24:32;;;;;;;12.13;7.97;;;;;;;;;;2040849;29;20208;-89
2023/06/26 05:25:35;;;;;;;18.95;8.95;;;;;;;;;;2040711;29;20424;-90
2023/06/26 05:27:29;;;;;;;12.35;8.20;;;;;;;;;;2040128;29;20034;-90
2023/06/26 05:28:58;;;;;;;12.23;8.23;;;;;;;;;;2037768;29;20046;-90
2023/06/26 05:30:14;;;;;;;12.80;8.32;;;;;;;;;;2034899;29;20034;-90
2023/06/26 05:31:18;;;;;;;14.82;9.23;;;;;;;;;;2041761;29;20088;-90
2023/06/26 05:32:18;;;;;;;14.13;7.85;;;;;;;;;;2039707;29;20411;-90
2023/06/26 05:33:23;;;;;;;13.52;8.52;;;;;;;;;;2040131;29;20031;-90
2023/06/26 05:34:25;;;;;;;14.02;8.63;;;;;;;;;;2032527;29;20028;-90
2023/06/26 05:35:32;;;;;;;16.17;8.38;;;;;;;;;;2032172;29;20023;-90
2023/06/26 05:36:35;;;;;;;14.43;8.70;;;;;;;;;;2036502;29;20052;-91
2023/06/26 05:37:42;;;;;;;14.65;8.57;;;;;;;;;;2042717;29;20020;-90
2023/06/26 05:38:43;;;;;;;12.35;8.55;;;;;;;;;;2050303;29;20032;-89
2023/06/26 05:39:43;;;;;;;12.57;8.48;;;;;;;;;;2050166;29;20148;-89
2023/06/26 05:40:44;;;;;;;12.55;8.25;;;;;;;;;;2050260;29;20079;-90
2023/06/26 05:41:45;;;;;;;13.75;8.75;;;;;;;;;;2047791;29;20039;-90
2023/06/26 05:42:46;;;;;;;14.95;9.05;;;;;;;;;;2040183;29;20130;-90
2023/06/26 05:43:46;;;;;;;13.88;8.98;;;;;;;;;;2040494;29;20055;-89
2023/06/26 05:44:47;;;;;;;12.38;8.07;;;;;;;;;;2040376;29;20543;-89
2023/06/26 05:45:50;;;;;;;13.43;8.50;;;;;;;;;;2040974;29;20036;-89
2023/06/26 05:46:50;;;;;;;12.80;7.88;;;;;;;;;;2040611;29;20034;-89
2023/06/26 05:47:51;;;;;;;12.75;8.38;;;;;;;;;;2039605;29;20473;-90
2023/06/26 05:48:51;;;;;;;14.40;8.50;;;;;;;;;;2031855;29;20386;-89
2023/06/26 05:49:52;;;;;;;14.27;8.60;;;;;;;;;;2039889;29;20035;-89
2023/06/26 05:50:53;;;;;;;13.25;8.73;;;;;;;;;;2040371;29;20361;-89
2023/06/26 05:51:53;;;;;;;12.98;8.15;;;;;;;;;;2040704;28;20078;-89
2023/06/26 05:52:54;;;;;;;12.30;8.32;;;;;;;;;;2040221;29;20031;-89
2023/06/26 05:53:55;;;;;;;14.05;8.55;;;;;;;;;;2040453;29;20381;-89
2023/06/26 05:55:00;;;;;;;11.68;8.60;;;;;;;;;;2045768;29;20035;-90
2023/06/26 05:56:00;;;;;;;13.57;7.65;;;;;;;;;;2050327;29;20011;-89
2023/06/26 05:57:02;;;;;;;15.15;8.80;;;;;;;;;;2049872;29;20096;-90
2023/06/26 05:58:03;;;;;;;13.82;8.23;;;;;;;;;;2050375;29;20011;-91
2023/06/26 05:59:05;;;;;;;13.55;8.93;;;;;;;;;;2049552;29;20136;-90
2023/06/26 06:00:10;;;;;;;13.63;8.90;;;;;;;;;;2045126;29;20028;-90
2023/06/26 06:01:10;;;;;;;12.45;8.70;;;;;;;;;;2039668;29;20063;-90
2023/06/26 06:02:12;;;;;;;12.48;8.30;;;;;;;;;;2039719;29;20083;-91
2023/06/26 06:03:12;;;;;;;13.48;8.45;;;;;;;;;;2039939;29;20151;-91
2023/06/26 06:04:12;;;;;;;13.27;8.45;;;;;;;;;;2039819;29;20485;-91
2023/06/26 06:05:13;;;;;;;14.32;8.45;;;;;;;;;;2040547;29;20063;-91
2023/06/26 06:06:21;;;;;;;12.80;9.25;;;;;;;;;;2040298;29;20087;-91
2023/06/26 06:07:24;;;;;;;13.32;7.95;;;;;;;;;;1690989;28;10269428;-91
2023/06/26 06:08:25;;;;;;;15.55;8.43;;;;;;;;;;2040367;29;20028;-91
2023/06/26 06:09:25;;;;;;;11.75;7.95;;;;;;;;;;2039901;28;20036;-90
2023/06/26 06:10:26;;;;;;;13.05;8.32;;;;;;;;;;1683966;29;10457228;-90
2023/06/26 06:11:26;;;;;;;12.52;8.60;;;;;;;;;;2039393;29;20134;-90
2023/06/26 06:12:27;;;;;;;12.95;8.57;;;;;;;;;;2039403;29;20040;-90
2023/06/26 06:13:28;;;;;;;14.10;8.45;;;;;;;;;;2047071;29;20023;-90
2023/06/26 06:14:28;;;;;;;12.85;7.88;;;;;;;;;;2039479;29;20038;-92
2023/06/26 06:15:29;;;;;;;15.27;9.40;;;;;;;;;;2031355;29;20124;-91
2023/06/26 06:17:48;;;;;;;14.25;8.82;;;;;;;;;;2039580;29;20031;-90
2023/06/26 06:18:49;;;;;;;15.63;9.65;;;;;;;;;;2040383;28;20032;-89